createdAt,value
2019-03-11T00:00:09.896Z,5.10
2019-03-11T00:02:39.225Z,5.00
2019-03-11T00:05:09.163Z,4.80
2019-03-11T00:07:38.469Z,4.30
2019-03-11T00:10:08.199Z,4.00
2019-03-11T00:12:37.499Z,3.40
2019-03-11T00:15:06.905Z,3.20
2019-03-11T00:17:36.219Z,3.00
2019-03-11T00:20:05.648Z,2.80
2019-03-11T00:22:34.978Z,2.70
2019-03-11T00:25:04.513Z,2.60
2019-03-11T00:27:33.760Z,2.60
2019-03-11T00:30:03.064Z,2.60
2019-03-11T00:32:32.336Z,2.60
2019-03-11T00:35:01.645Z,2.70
2019-03-11T00:37:31.020Z,2.70
2019-03-11T00:40:00.340Z,2.70
2019-03-11T00:42:29.695Z,2.80
2019-03-11T00:44:58.976Z,2.80
2019-03-11T00:47:28.284Z,2.80
2019-03-11T00:49:57.559Z,2.90
2019-03-11T00:52:26.869Z,3.00
2019-03-11T00:54:56.193Z,3.20
2019-03-11T00:57:25.898Z,3.20
2019-03-11T00:59:55.932Z,3.30
2019-03-11T01:02:25.223Z,3.30
2019-03-11T01:04:55.077Z,3.30
2019-03-11T01:07:24.362Z,3.40
2019-03-11T01:09:54.061Z,3.50
2019-03-11T01:12:23.466Z,3.50
2019-03-11T01:14:52.752Z,3.60
2019-03-11T01:17:22.039Z,3.60
2019-03-11T01:19:51.329Z,3.70
2019-03-11T01:22:20.744Z,3.70
2019-03-11T01:24:50.093Z,3.70
2019-03-11T01:27:19.369Z,3.60
2019-03-11T01:29:48.664Z,3.70
2019-03-11T01:32:18.065Z,3.70
2019-03-11T01:34:47.364Z,3.70
2019-03-11T01:37:16.984Z,3.70
2019-03-11T01:39:46.333Z,3.60
2019-03-11T01:42:15.674Z,3.50
2019-03-11T01:44:45.416Z,3.30
2019-03-11T01:47:14.684Z,3.20
2019-03-11T01:49:44.025Z,3.10
2019-03-11T01:52:13.812Z,2.90
2019-03-11T01:54:43.094Z,2.90
2019-03-11T01:57:12.406Z,2.90
2019-03-11T01:59:42.038Z,2.90
2019-03-11T02:02:11.841Z,2.90
2019-03-11T02:04:41.189Z,2.90
2019-03-11T02:07:10.609Z,2.90
2019-03-11T02:09:39.889Z,2.90
2019-03-11T02:12:09.210Z,2.90
2019-03-11T02:14:38.499Z,2.90
2019-03-11T02:17:07.847Z,2.90
2019-03-11T02:19:37.119Z,2.90
2019-03-11T02:22:07.135Z,2.90
2019-03-11T02:24:36.807Z,2.90
2019-03-11T02:27:06.104Z,3.00
2019-03-11T02:29:35.392Z,3.00
2019-03-11T02:32:04.704Z,3.00
2019-03-11T02:34:34.455Z,3.00
2019-03-11T02:37:04.046Z,3.10
2019-03-11T02:39:33.390Z,3.10
2019-03-11T02:42:02.778Z,3.20
2019-03-11T02:44:32.099Z,3.20
2019-03-11T02:47:01.711Z,3.20
2019-03-11T02:49:31.070Z,3.20
2019-03-11T02:52:00.364Z,3.20
2019-03-11T02:54:29.734Z,3.20
2019-03-11T02:56:59.069Z,3.30
2019-03-11T02:59:28.366Z,3.30
2019-03-11T03:02:13.450Z,3.30
2019-03-11T03:04:47.432Z,3.30
2019-03-11T03:07:19.851Z,3.30
2019-03-11T03:09:49.713Z,3.40
2019-03-11T03:12:19.064Z,3.40
2019-03-11T03:14:48.397Z,3.40
2019-03-11T03:17:17.682Z,3.40
2019-03-11T03:19:47.331Z,3.50
2019-03-11T03:22:16.628Z,3.50
2019-03-11T03:24:45.907Z,3.60
2019-03-11T03:27:15.226Z,3.60
2019-03-11T03:29:44.533Z,3.60
2019-03-11T03:32:13.925Z,3.60
2019-03-11T03:34:43.667Z,3.60
2019-03-11T03:37:13.052Z,3.60
2019-03-11T03:39:42.337Z,3.60
2019-03-11T03:42:13.594Z,3.50
2019-03-11T03:44:55.889Z,3.50
2019-03-11T03:47:25.315Z,3.50
2019-03-11T03:49:54.613Z,3.40
2019-03-11T03:52:23.899Z,3.50
2019-03-11T03:54:53.165Z,3.40
2019-03-11T03:57:22.430Z,3.40
2019-03-11T03:59:52.117Z,3.40
2019-03-11T04:02:21.840Z,3.40
2019-03-11T04:04:51.166Z,3.40
2019-03-11T04:07:20.473Z,3.40
2019-03-11T04:09:49.776Z,3.30
2019-03-11T04:12:19.089Z,3.30
2019-03-11T04:14:48.373Z,3.30
2019-03-11T04:17:17.670Z,3.30
2019-03-11T04:19:46.922Z,3.30
2019-03-11T04:22:16.290Z,3.40
2019-03-11T04:24:45.544Z,3.30
2019-03-11T04:27:14.954Z,3.40
2019-03-11T04:29:44.253Z,3.40
2019-03-11T04:32:13.633Z,3.40
2019-03-11T04:34:42.947Z,3.40
2019-03-11T04:37:12.229Z,3.40
2019-03-11T04:39:41.600Z,3.40
2019-03-11T04:42:11.450Z,3.30
2019-03-11T04:44:40.769Z,3.30
2019-03-11T04:47:10.095Z,3.30
2019-03-11T04:49:39.396Z,3.20
2019-03-11T04:52:08.698Z,3.00
2019-03-11T04:54:38.363Z,2.80
2019-03-11T04:57:08.104Z,2.60
2019-03-11T04:59:37.388Z,2.40
2019-03-11T05:02:09.599Z,2.40
2019-03-11T05:04:39.409Z,2.20
2019-03-11T05:07:09.157Z,2.20
2019-03-11T05:09:39.357Z,2.20
2019-03-11T05:12:08.705Z,2.20
2019-03-11T05:14:38.091Z,2.20
2019-03-11T05:17:07.398Z,2.10
2019-03-11T05:19:36.688Z,2.10
2019-03-11T05:22:05.963Z,2.10
2019-03-11T05:24:35.272Z,2.10
2019-03-11T05:27:04.539Z,2.20
2019-03-11T05:29:34.938Z,2.20
2019-03-11T05:32:04.327Z,2.20
2019-03-11T05:34:33.688Z,2.30
2019-03-11T05:37:03.082Z,2.30
2019-03-11T05:39:32.788Z,2.40
2019-03-11T05:42:02.458Z,2.50
2019-03-11T05:44:32.041Z,2.50
2019-03-11T05:47:01.329Z,2.50
2019-03-11T05:49:30.631Z,2.50
2019-03-11T05:51:59.925Z,2.50
2019-03-11T05:54:29.192Z,2.50
2019-03-11T05:56:59.144Z,2.50
2019-03-11T05:59:28.706Z,2.50
2019-03-11T06:01:58.238Z,2.40
2019-03-11T06:04:27.515Z,2.40
2019-03-11T06:06:56.804Z,2.40
2019-03-11T06:09:26.850Z,2.50
2019-03-11T06:11:56.122Z,2.50
2019-03-11T06:14:25.518Z,2.60
2019-03-11T06:16:54.849Z,2.60
2019-03-11T06:19:24.126Z,2.70
2019-03-11T06:22:16.280Z,2.70
2019-03-11T06:24:45.551Z,2.70
2019-03-11T06:27:14.883Z,2.60
2019-03-11T06:29:44.148Z,2.60
2019-03-11T06:32:13.458Z,2.60
2019-03-11T06:34:43.154Z,2.60
2019-03-11T06:37:12.445Z,2.50
2019-03-11T06:39:41.877Z,2.40
2019-03-11T06:42:11.233Z,2.20
2019-03-11T06:44:40.557Z,2.10
2019-03-11T06:47:09.902Z,2.10
2019-03-11T06:49:39.194Z,2.00
2019-03-11T06:52:08.496Z,1.90
2019-03-11T06:54:37.793Z,1.90
2019-03-11T06:57:07.081Z,1.80
2019-03-11T06:59:36.732Z,1.80
2019-03-11T07:02:06.038Z,1.70
2019-03-11T07:04:35.219Z,1.70
2019-03-11T07:07:04.510Z,1.60
2019-03-11T07:09:33.869Z,1.50
2019-03-11T07:12:03.273Z,1.40
2019-03-11T07:14:32.585Z,1.40
2019-03-11T07:17:01.927Z,1.40
2019-03-11T07:19:31.243Z,1.40
2019-03-11T07:22:00.584Z,1.30
2019-03-11T07:24:29.893Z,1.40
2019-03-11T07:26:59.572Z,1.50
2019-03-11T07:29:28.857Z,1.50
2019-03-11T07:31:58.129Z,1.50
2019-03-11T07:34:27.408Z,1.60
2019-03-11T07:36:56.700Z,1.70
2019-03-11T07:39:26.066Z,1.80
2019-03-11T07:41:55.332Z,1.90
2019-03-11T07:44:24.656Z,1.90
2019-03-11T07:46:53.993Z,2.10
2019-03-11T07:49:23.293Z,2.40
2019-03-11T07:51:52.519Z,2.50
2019-03-11T07:54:21.981Z,2.60
2019-03-11T07:56:51.298Z,2.60
2019-03-11T07:59:20.556Z,2.50
2019-03-11T08:01:49.843Z,2.40
2019-03-11T08:04:19.160Z,2.40
2019-03-11T08:06:48.518Z,2.30
2019-03-11T08:09:17.843Z,2.30
2019-03-11T08:11:47.133Z,2.30
2019-03-11T08:14:16.445Z,2.30
2019-03-11T08:16:45.756Z,2.20
2019-03-11T08:19:15.092Z,2.20
2019-03-11T08:21:44.474Z,2.20
2019-03-11T08:24:13.810Z,2.30
2019-03-11T08:26:43.095Z,2.30
2019-03-11T08:29:12.839Z,2.30
2019-03-11T08:31:42.117Z,2.30
2019-03-11T08:34:11.421Z,2.20
2019-03-11T08:36:40.692Z,2.20
2019-03-11T08:39:11.371Z,2.20
2019-03-11T08:41:40.727Z,2.30
2019-03-11T08:44:10.051Z,2.30
2019-03-11T08:46:39.347Z,2.40
2019-03-11T08:49:08.696Z,2.40
2019-03-11T08:51:38.383Z,2.30
2019-03-11T08:54:07.613Z,2.30
2019-03-11T08:56:37.032Z,2.30
2019-03-11T08:59:06.336Z,2.30
2019-03-11T09:01:36.541Z,2.40
2019-03-11T09:04:05.845Z,2.50
2019-03-11T09:06:35.141Z,2.50
2019-03-11T09:09:06.208Z,2.60
2019-03-11T09:11:35.497Z,2.70
2019-03-11T09:14:04.975Z,2.80
2019-03-11T09:16:34.281Z,2.80
2019-03-11T09:19:03.569Z,2.80
2019-03-11T09:21:32.873Z,2.80
2019-03-11T09:24:02.163Z,2.80
2019-03-11T09:26:31.484Z,2.80
2019-03-11T09:29:00.832Z,2.80
2019-03-11T09:31:30.096Z,2.90
2019-03-11T09:33:59.378Z,2.80
2019-03-11T09:36:28.760Z,2.90
2019-03-11T09:38:58.053Z,2.80
2019-03-11T09:41:27.347Z,2.90
2019-03-11T09:43:56.641Z,3.00
2019-03-11T09:46:25.912Z,3.10
2019-03-11T09:48:55.220Z,3.10
2019-03-11T09:51:24.902Z,3.20
2019-03-11T09:53:54.207Z,3.20
2019-03-11T09:56:23.493Z,3.20
2019-03-11T09:58:52.799Z,3.30
2019-03-11T10:01:22.149Z,3.30
2019-03-11T10:03:51.420Z,3.30
2019-03-11T10:06:20.725Z,3.40
2019-03-11T10:08:50.029Z,3.40
2019-03-11T10:11:19.340Z,3.40
2019-03-11T10:13:48.646Z,3.50
2019-03-11T10:16:18.027Z,3.50
2019-03-11T10:18:47.340Z,3.50
2019-03-11T10:21:16.618Z,3.60
2019-03-11T10:23:45.961Z,3.70
2019-03-11T10:26:15.239Z,3.80
2019-03-11T10:28:44.545Z,3.80
2019-03-11T10:31:13.810Z,3.80
2019-03-11T10:33:43.171Z,3.90
2019-03-11T10:36:12.500Z,4.00
2019-03-11T10:38:41.837Z,4.10
2019-03-11T10:41:11.579Z,4.20
2019-03-11T10:43:40.915Z,4.40
2019-03-11T10:46:10.236Z,4.60
2019-03-11T10:48:39.536Z,4.70
2019-03-11T10:51:08.834Z,4.90
2019-03-11T10:53:38.189Z,5.10
2019-03-11T10:56:07.489Z,5.30
2019-03-11T10:58:36.808Z,5.30
2019-03-11T11:01:06.195Z,5.40
2019-03-11T11:03:35.528Z,5.50
2019-03-11T11:06:04.996Z,5.60
2019-03-11T11:08:34.435Z,5.80
2019-03-11T11:11:03.785Z,5.90
2019-03-11T11:13:33.089Z,6.10
2019-03-11T11:16:02.365Z,6.30
2019-03-11T11:18:31.665Z,6.30
2019-03-11T11:21:01.022Z,6.30
2019-03-11T11:23:30.341Z,6.30
2019-03-11T11:25:59.617Z,6.20
2019-03-11T11:28:28.900Z,6.10
2019-03-11T11:30:58.201Z,6.00
2019-03-11T11:33:27.522Z,5.90
2019-03-11T11:35:57.159Z,6.00
2019-03-11T11:38:26.508Z,5.90
2019-03-11T11:40:55.769Z,6.00
2019-03-11T11:43:26.322Z,6.10
2019-03-11T11:45:55.627Z,6.20
2019-03-11T11:48:24.939Z,6.20
2019-03-11T11:50:54.239Z,6.20
2019-03-11T11:53:25.240Z,6.10
2019-03-11T11:55:57.923Z,6.00
2019-03-11T11:58:25.792Z,6.00
2019-03-11T12:00:55.145Z,6.00
2019-03-11T12:03:24.457Z,6.00
2019-03-11T12:05:53.746Z,6.10
2019-03-11T12:08:23.086Z,6.20
2019-03-11T12:10:52.460Z,6.20
2019-03-11T12:13:22.069Z,6.20
2019-03-11T12:15:51.543Z,6.20
2019-03-11T12:18:20.925Z,6.20
2019-03-11T12:20:50.282Z,6.20
2019-03-11T12:23:19.621Z,6.20
2019-03-11T12:25:49.007Z,6.20
2019-03-11T12:28:18.267Z,6.30
2019-03-11T12:30:47.584Z,6.40
2019-03-11T12:33:16.953Z,6.50
2019-03-11T12:35:46.378Z,6.50
2019-03-11T12:38:15.665Z,6.40
2019-03-11T12:40:47.387Z,6.30
2019-03-11T12:43:16.686Z,6.30
2019-03-11T12:45:45.985Z,6.20
2019-03-11T12:48:15.278Z,6.30
2019-03-11T12:50:44.601Z,6.30
2019-03-11T12:53:14.233Z,6.30
2019-03-11T12:55:43.513Z,6.40
2019-03-11T12:58:12.800Z,6.30
2019-03-11T13:00:42.165Z,6.40
2019-03-11T13:03:11.484Z,6.50
2019-03-11T13:05:40.973Z,6.50
2019-03-11T13:08:10.303Z,6.50
2019-03-11T13:10:39.632Z,6.50
2019-03-11T13:13:09.062Z,6.50
2019-03-11T13:15:38.412Z,6.40
2019-03-11T13:18:36.157Z,6.30
2019-03-11T13:21:09.825Z,6.40
2019-03-11T13:23:41.441Z,6.50
2019-03-11T13:26:10.284Z,6.50
2019-03-11T13:28:42.632Z,6.60
2019-03-11T13:31:11.987Z,6.50
2019-03-11T13:33:41.365Z,6.50
2019-03-11T13:36:10.905Z,6.40
2019-03-11T13:38:40.201Z,6.40
2019-03-11T13:41:09.480Z,6.40
2019-03-11T13:43:38.784Z,6.40
2019-03-11T13:46:08.094Z,6.40
2019-03-11T13:48:37.576Z,6.50
2019-03-11T13:51:07.252Z,6.60
2019-03-11T13:53:36.540Z,6.50
2019-03-11T13:56:05.808Z,6.50
2019-03-11T13:58:35.095Z,6.50
2019-03-11T14:01:04.641Z,6.70
2019-03-11T14:03:33.981Z,6.80
2019-03-11T14:06:03.264Z,6.80
2019-03-11T14:08:32.552Z,7.00
2019-03-11T14:11:01.857Z,6.90
2019-03-11T14:13:31.169Z,6.80
2019-03-11T14:16:00.454Z,6.80
2019-03-11T14:18:29.739Z,6.80
2019-03-11T14:20:59.022Z,7.00
2019-03-11T14:23:28.389Z,7.10
2019-03-11T14:25:57.657Z,7.20
2019-03-11T14:28:26.941Z,7.20
2019-03-11T14:30:56.612Z,7.10
2019-03-11T14:33:25.917Z,7.10
2019-03-11T14:35:55.543Z,7.30
2019-03-11T14:38:24.827Z,7.50
2019-03-11T14:40:54.114Z,7.60
2019-03-11T14:43:23.436Z,7.70
2019-03-11T14:45:52.798Z,7.70
2019-03-11T14:48:22.119Z,7.50
2019-03-11T14:50:51.388Z,7.30
2019-03-11T14:53:22.243Z,7.30
2019-03-11T14:55:51.521Z,7.20
2019-03-11T14:58:29.095Z,7.20
2019-03-11T15:00:52.285Z,7.20
2019-03-11T15:03:21.562Z,7.20
2019-03-11T15:05:53.382Z,7.20
2019-03-11T15:08:21.889Z,7.40
2019-03-11T15:10:51.184Z,7.50
2019-03-11T15:13:20.472Z,7.60
2019-03-11T15:15:49.752Z,7.50
2019-03-11T15:18:19.041Z,7.40
2019-03-11T15:20:48.433Z,7.40
2019-03-11T15:23:20.643Z,7.30
2019-03-11T15:25:49.449Z,7.30
2019-03-11T15:28:18.733Z,7.30
2019-03-11T15:30:48.150Z,7.30
2019-03-11T15:33:17.506Z,7.20
2019-03-11T15:35:49.669Z,7.20
2019-03-11T15:38:19.048Z,7.20
2019-03-11T15:40:48.404Z,7.40
2019-03-11T15:43:17.753Z,7.50
2019-03-11T15:45:47.216Z,7.60
2019-03-11T15:48:16.508Z,7.60
2019-03-11T15:50:45.776Z,7.70
2019-03-11T15:53:15.455Z,7.70
2019-03-11T15:55:44.991Z,7.70
2019-03-11T15:58:14.439Z,7.60
2019-03-11T16:00:43.758Z,7.60
2019-03-11T16:03:13.025Z,7.50
2019-03-11T16:05:42.576Z,7.50
2019-03-11T16:08:11.853Z,7.30
2019-03-11T16:10:41.200Z,7.30
2019-03-11T16:13:10.512Z,7.30
2019-03-11T16:15:39.779Z,7.30
2019-03-11T16:18:09.459Z,7.30
2019-03-11T16:20:38.744Z,7.20
2019-03-11T16:23:08.379Z,7.10
2019-03-11T16:25:37.706Z,7.10
2019-03-11T16:28:07.005Z,7.00
2019-03-11T16:30:36.302Z,7.00
2019-03-11T16:33:05.995Z,7.00
2019-03-11T16:35:35.310Z,7.00
2019-03-11T16:38:04.713Z,7.00
2019-03-11T16:40:33.992Z,6.90
2019-03-11T16:43:03.708Z,6.80
2019-03-11T16:45:33.184Z,6.70
2019-03-11T16:48:02.589Z,6.60
2019-03-11T16:50:31.851Z,6.50
2019-03-11T16:53:01.243Z,6.50
2019-03-11T16:55:33.110Z,6.40
2019-03-11T16:58:02.913Z,6.30
2019-03-11T17:00:36.600Z,6.20
2019-03-11T17:03:06.193Z,6.20
2019-03-11T17:05:35.569Z,6.20
2019-03-11T17:08:04.978Z,6.10
2019-03-11T17:10:34.272Z,6.10
2019-03-11T17:13:03.543Z,6.00
2019-03-11T17:15:33.274Z,6.00
2019-03-11T17:18:02.546Z,5.90
2019-03-11T17:20:32.107Z,5.90
2019-03-11T17:23:01.733Z,5.80
2019-03-11T17:25:31.048Z,5.70
2019-03-11T17:28:00.693Z,5.70
2019-03-11T17:30:29.997Z,5.80
2019-03-11T17:32:59.284Z,5.70
2019-03-11T17:35:28.600Z,5.70
2019-03-11T17:37:57.909Z,5.70
2019-03-11T17:40:27.205Z,5.80
2019-03-11T17:42:56.527Z,5.70
2019-03-11T17:45:25.894Z,5.60
2019-03-11T17:47:55.281Z,5.50
2019-03-11T17:50:25.074Z,5.50
2019-03-11T17:52:54.616Z,5.40
2019-03-11T17:55:24.189Z,5.40
2019-03-11T17:57:53.687Z,5.30
2019-03-11T18:00:26.007Z,5.30
2019-03-11T18:02:55.820Z,5.30
2019-03-11T18:05:25.204Z,5.30
2019-03-11T18:07:54.516Z,5.30
2019-03-11T18:10:23.820Z,5.30
2019-03-11T18:12:53.119Z,5.30
2019-03-11T18:15:22.406Z,5.40
2019-03-11T18:17:51.689Z,5.40
2019-03-11T18:20:21.007Z,5.50
2019-03-11T18:22:50.601Z,5.40
2019-03-11T18:25:19.951Z,5.50
2019-03-11T18:27:49.362Z,5.50
2019-03-11T18:30:19.876Z,5.40
2019-03-11T18:32:49.352Z,5.50
2019-03-11T18:35:18.979Z,5.40
2019-03-11T18:37:48.294Z,5.30
2019-03-11T18:40:17.697Z,5.20
2019-03-11T18:42:47.060Z,5.20
2019-03-11T18:45:16.568Z,5.20
2019-03-11T18:47:46.254Z,5.10
2019-03-11T18:50:15.975Z,5.10
2019-03-11T18:52:45.733Z,5.00
2019-03-11T18:55:15.439Z,5.00
2019-03-11T18:57:44.800Z,4.90
2019-03-11T19:00:16.584Z,4.90
2019-03-11T19:03:04.935Z,4.80
2019-03-11T19:05:34.317Z,4.80
2019-03-11T19:08:03.816Z,4.80
2019-03-11T19:10:33.254Z,4.70
2019-03-11T19:13:02.544Z,4.60
2019-03-11T19:15:32.209Z,4.60
2019-03-11T19:18:01.612Z,4.50
2019-03-11T19:20:31.325Z,4.60
2019-03-11T19:23:00.683Z,4.60
2019-03-11T19:25:30.060Z,4.50
2019-03-11T19:28:00.505Z,4.50
2019-03-11T19:30:29.886Z,4.50
2019-03-11T19:33:02.371Z,4.50
2019-03-11T19:35:31.768Z,4.50
2019-03-11T19:38:01.121Z,4.40
2019-03-11T19:40:30.773Z,4.40
2019-03-11T19:43:00.257Z,4.30
2019-03-11T19:45:29.820Z,4.30
2019-03-11T19:47:59.155Z,4.20
2019-03-11T19:50:28.511Z,4.20
2019-03-11T19:52:59.500Z,4.10
2019-03-11T19:55:29.113Z,4.20
2019-03-11T19:57:58.514Z,4.10
2019-03-11T20:00:27.916Z,4.10
2019-03-11T20:02:57.238Z,4.00
2019-03-11T20:05:26.755Z,4.00
2019-03-11T20:07:56.124Z,4.00
2019-03-11T20:10:28.713Z,4.00
2019-03-11T20:12:59.834Z,4.00
2019-03-11T20:15:29.170Z,4.00
2019-03-11T20:17:58.609Z,4.00
2019-03-11T20:20:28.217Z,4.00
2019-03-11T20:22:57.607Z,4.00
2019-03-11T20:25:27.838Z,4.00
2019-03-11T20:27:57.230Z,4.00
2019-03-11T20:30:26.649Z,4.10
2019-03-11T20:32:56.015Z,4.10
2019-03-11T20:35:25.362Z,4.10
2019-03-11T20:37:54.747Z,4.00
2019-03-11T20:40:24.835Z,4.00
2019-03-11T20:42:55.052Z,4.00
2019-03-11T20:45:24.477Z,4.10
2019-03-11T20:47:53.909Z,4.00
2019-03-11T20:50:23.393Z,4.00
2019-03-11T20:52:53.121Z,4.00
2019-03-11T20:55:22.486Z,4.00
2019-03-11T20:57:51.895Z,4.00
2019-03-11T21:00:21.586Z,4.00
2019-03-11T21:02:51.232Z,4.00
2019-03-11T21:05:23.581Z,4.00
2019-03-11T21:07:53.329Z,4.00
2019-03-11T21:10:22.721Z,4.10
2019-03-11T21:12:52.206Z,4.10
2019-03-11T21:15:24.757Z,4.10
2019-03-11T21:17:54.300Z,4.10
2019-03-11T21:20:23.659Z,4.10
2019-03-11T21:22:52.995Z,4.10
2019-03-11T21:25:22.396Z,4.20
2019-03-11T21:27:51.893Z,4.20
2019-03-11T21:30:21.676Z,4.30
2019-03-11T21:32:51.064Z,4.30
2019-03-11T21:35:20.593Z,4.30
2019-03-11T21:37:50.063Z,4.30
2019-03-11T21:40:19.494Z,4.30
2019-03-11T21:42:49.377Z,4.30
2019-03-11T21:45:19.051Z,4.30
2019-03-11T21:47:51.012Z,4.30
2019-03-11T21:50:20.931Z,4.30
2019-03-11T21:52:50.277Z,4.30
2019-03-11T21:55:19.755Z,4.30
2019-03-11T21:57:49.440Z,4.30
2019-03-11T22:00:32.898Z,4.20
2019-03-11T22:02:53.393Z,4.10
2019-03-11T22:05:22.778Z,4.10
2019-03-11T22:07:52.193Z,4.10
2019-03-11T22:10:22.111Z,4.10
2019-03-11T22:12:52.493Z,4.10
2019-03-11T22:15:21.959Z,4.20
2019-03-11T22:17:55.126Z,4.20
2019-03-11T22:20:24.491Z,4.10
2019-03-11T22:22:54.411Z,4.10
2019-03-11T22:25:24.148Z,4.20
2019-03-11T22:27:53.451Z,4.00
2019-03-11T22:30:22.922Z,4.00
2019-03-11T22:32:52.397Z,4.00
2019-03-11T22:35:21.801Z,4.00
2019-03-11T22:37:51.080Z,4.00
2019-03-11T22:40:20.673Z,4.00
2019-03-11T22:42:50.244Z,4.00
2019-03-11T22:45:20.805Z,4.00
2019-03-11T22:47:50.596Z,4.00
2019-03-11T22:50:20.065Z,4.00
2019-03-11T22:52:49.350Z,3.90
2019-03-11T22:55:19.987Z,4.00
2019-03-11T22:57:49.337Z,3.90
2019-03-11T23:01:10.438Z,3.80
2019-03-11T23:03:50.477Z,3.80
2019-03-11T23:06:13.889Z,3.90
2019-03-11T23:08:43.595Z,3.80
2019-03-11T23:11:12.879Z,3.70
2019-03-11T23:13:42.231Z,3.70
2019-03-11T23:16:11.913Z,3.60
2019-03-11T23:18:41.210Z,3.60
2019-03-11T23:21:10.881Z,3.60
2019-03-11T23:23:40.287Z,3.60
2019-03-11T23:26:09.563Z,3.60
2019-03-11T23:28:38.928Z,3.50
2019-03-11T23:31:08.271Z,3.60
2019-03-11T23:33:37.719Z,3.60
2019-03-11T23:36:07.546Z,3.60
2019-03-11T23:38:37.016Z,3.70
2019-03-11T23:41:06.298Z,3.60
2019-03-11T23:43:35.675Z,3.50
2019-03-11T23:46:04.996Z,3.60
2019-03-11T23:48:34.269Z,3.60
2019-03-11T23:51:03.978Z,3.60
2019-03-11T23:53:33.372Z,3.60
2019-03-11T23:56:02.659Z,3.50
2019-03-11T23:58:31.913Z,3.50
